sensor_id;sensor_type;location;lat;lon;timestamp;P1;durP1;ratioP1;P2;durP2;ratioP2
33840;SDS011;20142;28.494;-16.312;2023-03-22T00:04:42;16.70;;;3.00;;
33840;SDS011;20142;28.494;-16.312;2023-03-22T00:09:43;19.77;;;3.83;;
33840;SDS011;20142;28.494;-16.312;2023-03-22T00:14:45;17.88;;;3.13;;
33840;SDS011;20142;28.494;-16.312;2023-03-22T00:19:48;13.48;;;3.00;;
33840;SDS011;20142;28.494;-16.312;2023-03-22T00:24:50;20.35;;;3.15;;
33840;SDS011;20142;28.494;-16.312;2023-03-22T00:29:51;17.80;;;3.17;;
33840;SDS011;20142;28.494;-16.312;2023-03-22T00:34:53;21.85;;;3.42;;
33840;SDS011;20142;28.494;-16.312;2023-03-22T00:39:55;18.90;;;3.30;;
33840;SDS011;20142;28.494;-16.312;2023-03-22T00:44:57;23.10;;;3.45;;
33840;SDS011;20142;28.494;-16.312;2023-03-22T00:49:58;23.98;;;3.72;;
33840;SDS011;20142;28.494;-16.312;2023-03-22T00:55:00;22.42;;;3.38;;
33840;SDS011;20142;28.494;-16.312;2023-03-22T01:00:03;19.88;;;3.55;;
33840;SDS011;20142;28.494;-16.312;2023-03-22T01:05:13;23.65;;;3.55;;
33840;SDS011;20142;28.494;-16.312;2023-03-22T01:10:15;17.70;;;3.13;;
33840;SDS011;20142;28.494;-16.312;2023-03-22T01:15:18;27.40;;;4.05;;
33840;SDS011;20142;28.494;-16.312;2023-03-22T01:20:20;20.92;;;3.38;;
33840;SDS011;20142;28.494;-16.312;2023-03-22T01:25:21;19.00;;;3.45;;
33840;SDS011;20142;28.494;-16.312;2023-03-22T01:30:23;20.40;;;3.20;;
33840;SDS011;20142;28.494;-16.312;2023-03-22T01:35:25;24.13;;;3.67;;
33840;SDS011;20142;28.494;-16.312;2023-03-22T01:40:27;18.27;;;3.28;;
33840;SDS011;20142;28.494;-16.312;2023-03-22T01:50:40;23.20;;;3.22;;
33840;SDS011;20142;28.494;-16.312;2023-03-22T01:55:48;19.77;;;3.55;;
33840;SDS011;20142;28.494;-16.312;2023-03-22T02:00:51;24.65;;;3.20;;
33840;SDS011;20142;28.494;-16.312;2023-03-22T02:05:53;18.90;;;2.63;;
33840;SDS011;20142;28.494;-16.312;2023-03-22T02:10:56;23.20;;;2.80;;
33840;SDS011;20142;28.494;-16.312;2023-03-22T02:16:11;21.33;;;3.67;;
33840;SDS011;20142;28.494;-16.312;2023-03-22T02:27:48;20.35;;;3.03;;
33840;SDS011;20142;28.494;-16.312;2023-03-22T02:49:21;20.23;;;2.88;;
33840;SDS011;20142;28.494;-16.312;2023-03-22T03:00:15;19.55;;;3.40;;
33840;SDS011;20142;28.494;-16.312;2023-03-22T03:05:19;18.55;;;2.97;;
33840;SDS011;20142;28.494;-16.312;2023-03-22T03:10:22;18.77;;;3.20;;
33840;SDS011;20142;28.494;-16.312;2023-03-22T03:15:24;21.08;;;2.50;;
33840;SDS011;20142;28.494;-16.312;2023-03-22T03:20:31;17.10;;;3.25;;
33840;SDS011;20142;28.494;-16.312;2023-03-22T03:36:39;18.45;;;2.95;;
33840;SDS011;20142;28.494;-16.312;2023-03-22T03:41:49;15.85;;;3.08;;
33840;SDS011;20142;28.494;-16.312;2023-03-22T03:46:53;21.20;;;4.03;;
33840;SDS011;20142;28.494;-16.312;2023-03-22T03:51:56;15.30;;;3.45;;
33840;SDS011;20142;28.494;-16.312;2023-03-22T03:56:59;17.50;;;3.50;;
33840;SDS011;20142;28.494;-16.312;2023-03-22T04:02:01;19.40;;;3.97;;
33840;SDS011;20142;28.494;-16.312;2023-03-22T04:07:03;18.00;;;3.15;;
33840;SDS011;20142;28.494;-16.312;2023-03-22T04:12:06;22.52;;;3.63;;
33840;SDS011;20142;28.494;-16.312;2023-03-22T04:17:09;18.95;;;3.67;;
33840;SDS011;20142;28.494;-16.312;2023-03-22T04:22:11;20.80;;;2.83;;
33840;SDS011;20142;28.494;-16.312;2023-03-22T04:27:18;18.10;;;3.50;;
33840;SDS011;20142;28.494;-16.312;2023-03-22T04:32:21;17.45;;;2.83;;
33840;SDS011;20142;28.494;-16.312;2023-03-22T04:37:25;19.05;;;3.28;;
33840;SDS011;20142;28.494;-16.312;2023-03-22T04:42:27;16.70;;;3.10;;
33840;SDS011;20142;28.494;-16.312;2023-03-22T04:47:29;13.82;;;2.55;;
33840;SDS011;20142;28.494;-16.312;2023-03-22T04:52:31;19.58;;;3.22;;
33840;SDS011;20142;28.494;-16.312;2023-03-22T04:57:32;22.92;;;3.70;;
33840;SDS011;20142;28.494;-16.312;2023-03-22T05:02:35;18.55;;;3.20;;
33840;SDS011;20142;28.494;-16.312;2023-03-22T05:07:40;23.85;;;3.20;;
33840;SDS011;20142;28.494;-16.312;2023-03-22T05:12:41;21.67;;;4.07;;
33840;SDS011;20142;28.494;-16.312;2023-03-22T05:17:43;27.05;;;3.58;;
33840;SDS011;20142;28.494;-16.312;2023-03-22T05:22:45;23.52;;;3.08;;
33840;SDS011;20142;28.494;-16.312;2023-03-22T05:27:50;28.20;;;3.28;;
33840;SDS011;20142;28.494;-16.312;2023-03-22T05:33:00;24.63;;;3.85;;
33840;SDS011;20142;28.494;-16.312;2023-03-22T05:38:04;25.02;;;4.32;;
33840;SDS011;20142;28.494;-16.312;2023-03-22T05:43:07;26.30;;;3.75;;
33840;SDS011;20142;28.494;-16.312;2023-03-22T05:48:09;23.25;;;3.25;;
33840;SDS011;20142;28.494;-16.312;2023-03-22T05:53:11;25.10;;;3.90;;
33840;SDS011;20142;28.494;-16.312;2023-03-22T05:58:12;22.30;;;3.38;;
33840;SDS011;20142;28.494;-16.312;2023-03-22T06:03:18;28.65;;;4.30;;
33840;SDS011;20142;28.494;-16.312;2023-03-22T06:08:20;30.08;;;3.72;;
33840;SDS011;20142;28.494;-16.312;2023-03-22T06:13:23;22.85;;;4.13;;
33840;SDS011;20142;28.494;-16.312;2023-03-22T06:18:24;30.75;;;3.30;;
33840;SDS011;20142;28.494;-16.312;2023-03-22T06:23:26;22.88;;;3.88;;
33840;SDS011;20142;28.494;-16.312;2023-03-22T06:28:28;15.98;;;3.08;;
33840;SDS011;20142;28.494;-16.312;2023-03-22T06:33:30;25.92;;;4.80;;
33840;SDS011;20142;28.494;-16.312;2023-03-22T06:38:32;18.42;;;3.42;;
33840;SDS011;20142;28.494;-16.312;2023-03-22T06:43:33;23.40;;;3.47;;
33840;SDS011;20142;28.494;-16.312;2023-03-22T06:48:35;21.80;;;4.45;;
33840;SDS011;20142;28.494;-16.312;2023-03-22T06:53:36;18.70;;;4.00;;
33840;SDS011;20142;28.494;-16.312;2023-03-22T06:58:38;29.20;;;4.05;;
33840;SDS011;20142;28.494;-16.312;2023-03-22T07:03:40;28.35;;;5.35;;
33840;SDS011;20142;28.494;-16.312;2023-03-22T07:08:42;18.55;;;4.38;;
33840;SDS011;20142;28.494;-16.312;2023-03-22T07:13:44;28.48;;;3.95;;
33840;SDS011;20142;28.494;-16.312;2023-03-22T07:18:45;16.63;;;3.67;;
33840;SDS011;20142;28.494;-16.312;2023-03-22T07:23:47;26.33;;;3.75;;
33840;SDS011;20142;28.494;-16.312;2023-03-22T07:28:49;26.50;;;3.78;;
33840;SDS011;20142;28.494;-16.312;2023-03-22T07:33:51;23.00;;;4.60;;
33840;SDS011;20142;28.494;-16.312;2023-03-22T07:38:52;19.92;;;3.42;;
33840;SDS011;20142;28.494;-16.312;2023-03-22T07:43:54;23.63;;;3.92;;
33840;SDS011;20142;28.494;-16.312;2023-03-22T07:48:56;28.35;;;3.88;;
33840;SDS011;20142;28.494;-16.312;2023-03-22T07:53:57;20.05;;;4.65;;
33840;SDS011;20142;28.494;-16.312;2023-03-22T07:59:00;23.17;;;5.28;;
33840;SDS011;20142;28.494;-16.312;2023-03-22T08:04:03;19.85;;;4.30;;
33840;SDS011;20142;28.494;-16.312;2023-03-22T08:09:05;25.23;;;3.85;;
33840;SDS011;20142;28.494;-16.312;2023-03-22T08:14:08;21.17;;;4.00;;
33840;SDS011;20142;28.494;-16.312;2023-03-22T08:19:10;24.95;;;4.05;;
33840;SDS011;20142;28.494;-16.312;2023-03-22T08:24:12;20.20;;;4.07;;
33840;SDS011;20142;28.494;-16.312;2023-03-22T08:29:14;21.30;;;3.53;;
33840;SDS011;20142;28.494;-16.312;2023-03-22T08:34:16;19.63;;;3.15;;
33840;SDS011;20142;28.494;-16.312;2023-03-22T08:39:18;19.35;;;3.45;;
33840;SDS011;20142;28.494;-16.312;2023-03-22T08:44:21;16.75;;;3.88;;
33840;SDS011;20142;28.494;-16.312;2023-03-22T08:49:22;23.45;;;4.30;;
33840;SDS011;20142;28.494;-16.312;2023-03-22T08:54:24;22.85;;;3.90;;
33840;SDS011;20142;28.494;-16.312;2023-03-22T08:59:27;16.20;;;3.10;;
33840;SDS011;20142;28.494;-16.312;2023-03-22T09:04:29;22.63;;;3.05;;
33840;SDS011;20142;28.494;-16.312;2023-03-22T09:09:31;27.35;;;6.45;;
33840;SDS011;20142;28.494;-16.312;2023-03-22T09:14:32;16.20;;;2.53;;
33840;SDS011;20142;28.494;-16.312;2023-03-22T09:19:34;23.88;;;2.97;;
33840;SDS011;20142;28.494;-16.312;2023-03-22T09:24:36;26.10;;;2.72;;
33840;SDS011;20142;28.494;-16.312;2023-03-22T09:29:38;17.80;;;2.90;;
33840;SDS011;20142;28.494;-16.312;2023-03-22T09:34:39;20.60;;;2.83;;
33840;SDS011;20142;28.494;-16.312;2023-03-22T09:39:41;22.42;;;3.28;;
33840;SDS011;20142;28.494;-16.312;2023-03-22T09:44:44;24.40;;;4.13;;
33840;SDS011;20142;28.494;-16.312;2023-03-22T09:49:47;13.00;;;2.72;;
33840;SDS011;20142;28.494;-16.312;2023-03-22T09:54:54;15.65;;;3.28;;
33840;SDS011;20142;28.494;-16.312;2023-03-22T10:10:43;16.10;;;3.15;;
33840;SDS011;20142;28.494;-16.312;2023-03-22T10:21:18;24.13;;;3.35;;
33840;SDS011;20142;28.494;-16.312;2023-03-22T10:26:35;16.80;;;2.47;;
33840;SDS011;20142;28.494;-16.312;2023-03-22T10:31:43;25.88;;;3.25;;
33840;SDS011;20142;28.494;-16.312;2023-03-22T10:36:45;20.15;;;3.17;;
33840;SDS011;20142;28.494;-16.312;2023-03-22T10:41:51;20.85;;;3.15;;
33840;SDS011;20142;28.494;-16.312;2023-03-22T10:47:00;17.30;;;2.90;;
33840;SDS011;20142;28.494;-16.312;2023-03-22T10:57:32;16.85;;;2.92;;
33840;SDS011;20142;28.494;-16.312;2023-03-22T11:02:33;19.08;;;3.33;;
33840;SDS011;20142;28.494;-16.312;2023-03-22T11:07:42;28.85;;;3.55;;
33840;SDS011;20142;28.494;-16.312;2023-03-22T11:12:45;25.47;;;4.17;;
33840;SDS011;20142;28.494;-16.312;2023-03-22T11:18:00;23.92;;;3.92;;
33840;SDS011;20142;28.494;-16.312;2023-03-22T11:23:10;21.90;;;3.78;;
33840;SDS011;20142;28.494;-16.312;2023-03-22T11:28:22;27.23;;;3.95;;
33840;SDS011;20142;28.494;-16.312;2023-03-22T11:33:36;26.25;;;3.30;;
33840;SDS011;20142;28.494;-16.312;2023-03-22T11:38:58;23.57;;;4.27;;
33840;SDS011;20142;28.494;-16.312;2023-03-22T11:44:07;22.85;;;4.20;;
33840;SDS011;20142;28.494;-16.312;2023-03-22T11:49:16;28.30;;;4.15;;
33840;SDS011;20142;28.494;-16.312;2023-03-22T11:54:28;34.45;;;4.65;;
33840;SDS011;20142;28.494;-16.312;2023-03-22T12:00:19;27.65;;;4.53;;
33840;SDS011;20142;28.494;-16.312;2023-03-22T12:05:14;36.88;;;4.68;;
33840;SDS011;20142;28.494;-16.312;2023-03-22T12:10:29;25.65;;;4.40;;
33840;SDS011;20142;28.494;-16.312;2023-03-22T12:15:40;30.38;;;4.75;;
33840;SDS011;20142;28.494;-16.312;2023-03-22T12:26:04;35.80;;;4.97;;
33840;SDS011;20142;28.494;-16.312;2023-03-22T12:31:22;27.63;;;4.60;;
33840;SDS011;20142;28.494;-16.312;2023-03-22T12:41:49;36.42;;;5.80;;
33840;SDS011;20142;28.494;-16.312;2023-03-22T12:52:14;30.17;;;5.43;;
33840;SDS011;20142;28.494;-16.312;2023-03-22T12:57:22;41.97;;;6.20;;
33840;SDS011;20142;28.494;-16.312;2023-03-22T13:02:31;39.17;;;5.72;;
33840;SDS011;20142;28.494;-16.312;2023-03-22T13:08:08;32.70;;;5.72;;
33840;SDS011;20142;28.494;-16.312;2023-03-22T13:13:09;41.58;;;6.10;;
33840;SDS011;20142;28.494;-16.312;2023-03-22T13:29:06;29.73;;;4.65;;
33840;SDS011;20142;28.494;-16.312;2023-03-22T13:34:17;29.88;;;4.93;;
33840;SDS011;20142;28.494;-16.312;2023-03-22T13:39:49;42.25;;;6.65;;
33840;SDS011;20142;28.494;-16.312;2023-03-22T13:44:55;35.05;;;4.60;;
33840;SDS011;20142;28.494;-16.312;2023-03-22T13:50:36;35.25;;;5.50;;
33840;SDS011;20142;28.494;-16.312;2023-03-22T13:55:36;25.20;;;4.93;;
33840;SDS011;20142;28.494;-16.312;2023-03-22T14:00:47;38.95;;;5.47;;
33840;SDS011;20142;28.494;-16.312;2023-03-22T15:04:26;29.77;;;5.25;;
33840;SDS011;20142;28.494;-16.312;2023-03-22T15:09:28;33.95;;;6.15;;
33840;SDS011;20142;28.494;-16.312;2023-03-22T15:14:31;29.70;;;4.68;;
33840;SDS011;20142;28.494;-16.312;2023-03-22T15:19:37;28.55;;;5.47;;
33840;SDS011;20142;28.494;-16.312;2023-03-22T15:29:52;27.83;;;5.30;;
33840;SDS011;20142;28.494;-16.312;2023-03-22T15:34:54;26.33;;;4.90;;
33840;SDS011;20142;28.494;-16.312;2023-03-22T15:39:56;29.20;;;5.28;;
33840;SDS011;20142;28.494;-16.312;2023-03-22T15:45:07;23.00;;;5.50;;
33840;SDS011;20142;28.494;-16.312;2023-03-22T15:50:21;18.95;;;5.05;;
33840;SDS011;20142;28.494;-16.312;2023-03-22T16:00:36;25.95;;;5.15;;
33840;SDS011;20142;28.494;-16.312;2023-03-22T16:05:40;27.23;;;5.03;;
33840;SDS011;20142;28.494;-16.312;2023-03-22T16:10:44;18.63;;;4.00;;
33840;SDS011;20142;28.494;-16.312;2023-03-22T16:15:47;25.02;;;4.53;;
33840;SDS011;20142;28.494;-16.312;2023-03-22T16:20:49;22.63;;;4.30;;
33840;SDS011;20142;28.494;-16.312;2023-03-22T18:09:01;27.50;;;4.80;;
33840;SDS011;20142;28.494;-16.312;2023-03-22T18:14:03;25.17;;;5.22;;
33840;SDS011;20142;28.494;-16.312;2023-03-22T18:19:05;24.38;;;4.80;;
33840;SDS011;20142;28.494;-16.312;2023-03-22T18:24:07;22.90;;;4.28;;
33840;SDS011;20142;28.494;-16.312;2023-03-22T18:29:09;24.20;;;4.60;;
33840;SDS011;20142;28.494;-16.312;2023-03-22T18:34:11;28.58;;;5.00;;
33840;SDS011;20142;28.494;-16.312;2023-03-22T18:39:13;30.08;;;4.97;;
33840;SDS011;20142;28.494;-16.312;2023-03-22T18:44:17;27.20;;;4.88;;
33840;SDS011;20142;28.494;-16.312;2023-03-22T18:49:20;26.98;;;5.20;;
33840;SDS011;20142;28.494;-16.312;2023-03-22T18:54:22;33.40;;;5.35;;
33840;SDS011;20142;28.494;-16.312;2023-03-22T18:59:24;35.47;;;5.20;;
33840;SDS011;20142;28.494;-16.312;2023-03-22T19:04:29;34.05;;;4.85;;
33840;SDS011;20142;28.494;-16.312;2023-03-22T19:09:31;26.80;;;4.38;;
33840;SDS011;20142;28.494;-16.312;2023-03-22T19:14:32;36.67;;;6.13;;
33840;SDS011;20142;28.494;-16.312;2023-03-22T19:19:34;33.58;;;5.75;;
33840;SDS011;20142;28.494;-16.312;2023-03-22T19:24:39;26.17;;;5.10;;
33840;SDS011;20142;28.494;-16.312;2023-03-22T19:29:41;34.65;;;5.28;;
33840;SDS011;20142;28.494;-16.312;2023-03-22T19:34:42;41.90;;;5.65;;
33840;SDS011;20142;28.494;-16.312;2023-03-22T19:39:44;40.03;;;5.97;;
33840;SDS011;20142;28.494;-16.312;2023-03-22T19:44:46;29.83;;;5.05;;
33840;SDS011;20142;28.494;-16.312;2023-03-22T19:49:48;35.17;;;5.25;;
33840;SDS011;20142;28.494;-16.312;2023-03-22T19:54:49;37.50;;;5.57;;
33840;SDS011;20142;28.494;-16.312;2023-03-22T19:59:52;29.20;;;4.82;;
33840;SDS011;20142;28.494;-16.312;2023-03-22T20:04:53;35.70;;;5.38;;
33840;SDS011;20142;28.494;-16.312;2023-03-22T20:09:56;36.08;;;5.40;;
33840;SDS011;20142;28.494;-16.312;2023-03-22T20:14:57;31.90;;;5.45;;
33840;SDS011;20142;28.494;-16.312;2023-03-22T20:19:59;35.47;;;5.22;;
33840;SDS011;20142;28.494;-16.312;2023-03-22T20:25:01;40.63;;;5.53;;
33840;SDS011;20142;28.494;-16.312;2023-03-22T20:30:04;43.30;;;5.93;;
33840;SDS011;20142;28.494;-16.312;2023-03-22T20:35:09;39.53;;;5.43;;
33840;SDS011;20142;28.494;-16.312;2023-03-22T20:40:11;40.67;;;5.28;;
33840;SDS011;20142;28.494;-16.312;2023-03-22T20:45:13;34.92;;;5.07;;
33840;SDS011;20142;28.494;-16.312;2023-03-22T20:50:14;31.40;;;5.15;;
33840;SDS011;20142;28.494;-16.312;2023-03-22T20:55:16;28.90;;;3.50;;
33840;SDS011;20142;28.494;-16.312;2023-03-22T21:00:18;27.17;;;4.03;;
33840;SDS011;20142;28.494;-16.312;2023-03-22T21:05:23;31.73;;;4.40;;
33840;SDS011;20142;28.494;-16.312;2023-03-22T21:10:25;25.40;;;4.47;;
33840;SDS011;20142;28.494;-16.312;2023-03-22T21:15:27;27.50;;;4.20;;
33840;SDS011;20142;28.494;-16.312;2023-03-22T21:20:29;27.63;;;4.57;;
33840;SDS011;20142;28.494;-16.312;2023-03-22T21:25:31;27.00;;;4.22;;
33840;SDS011;20142;28.494;-16.312;2023-03-22T21:30:36;28.73;;;4.18;;
33840;SDS011;20142;28.494;-16.312;2023-03-22T21:35:39;34.13;;;4.95;;
33840;SDS011;20142;28.494;-16.312;2023-03-22T21:40:41;30.42;;;4.03;;
33840;SDS011;20142;28.494;-16.312;2023-03-22T21:45:49;22.63;;;3.60;;
33840;SDS011;20142;28.494;-16.312;2023-03-22T21:50:54;18.75;;;3.78;;
33840;SDS011;20142;28.494;-16.312;2023-03-22T21:55:57;33.42;;;4.35;;
33840;SDS011;20142;28.494;-16.312;2023-03-22T22:00:59;29.40;;;5.18;;
33840;SDS011;20142;28.494;-16.312;2023-03-22T22:06:01;30.58;;;4.75;;
33840;SDS011;20142;28.494;-16.312;2023-03-22T22:11:04;20.30;;;3.90;;
33840;SDS011;20142;28.494;-16.312;2023-03-22T22:16:07;31.75;;;4.38;;
33840;SDS011;20142;28.494;-16.312;2023-03-22T22:21:12;20.08;;;3.75;;
33840;SDS011;20142;28.494;-16.312;2023-03-22T22:26:15;26.90;;;4.65;;
33840;SDS011;20142;28.494;-16.312;2023-03-22T22:31:17;34.03;;;4.72;;
33840;SDS011;20142;28.494;-16.312;2023-03-22T22:36:24;30.33;;;4.68;;
33840;SDS011;20142;28.494;-16.312;2023-03-22T22:41:29;23.55;;;4.18;;
33840;SDS011;20142;28.494;-16.312;2023-03-22T22:46:31;33.42;;;4.38;;
33840;SDS011;20142;28.494;-16.312;2023-03-22T22:51:33;24.92;;;4.00;;
33840;SDS011;20142;28.494;-16.312;2023-03-22T22:56:35;25.63;;;3.90;;
33840;SDS011;20142;28.494;-16.312;2023-03-22T23:01:36;27.35;;;4.43;;
33840;SDS011;20142;28.494;-16.312;2023-03-22T23:06:38;29.98;;;4.57;;
33840;SDS011;20142;28.494;-16.312;2023-03-22T23:11:40;28.92;;;4.50;;
33840;SDS011;20142;28.494;-16.312;2023-03-22T23:16:41;24.52;;;4.07;;
33840;SDS011;20142;28.494;-16.312;2023-03-22T23:21:46;27.92;;;4.50;;
33840;SDS011;20142;28.494;-16.312;2023-03-22T23:26:48;24.23;;;4.35;;
33840;SDS011;20142;28.494;-16.312;2023-03-22T23:31:50;29.52;;;3.97;;
33840;SDS011;20142;28.494;-16.312;2023-03-22T23:36:51;28.75;;;4.80;;
33840;SDS011;20142;28.494;-16.312;2023-03-22T23:41:54;28.00;;;4.82;;
33840;SDS011;20142;28.494;-16.312;2023-03-22T23:46:55;30.70;;;5.70;;
33840;SDS011;20142;28.494;-16.312;2023-03-22T23:51:57;32.40;;;5.60;;
33840;SDS011;20142;28.494;-16.312;2023-03-22T23:56:59;24.98;;;4.57;;
